sensor_id;sensor_type;location;lat;lon;timestamp;P1;durP1;ratioP1;P2;durP2;ratioP2
69754;SDS011;57023;52.218;5.158;2024-03-02T00:01:39;6.35;;;2.50;;
69754;SDS011;57023;52.218;5.158;2024-03-02T00:04:05;4.40;;;2.25;;
69754;SDS011;57023;52.218;5.158;2024-03-02T00:06:31;5.63;;;2.60;;
69754;SDS011;57023;52.218;5.158;2024-03-02T00:08:58;4.60;;;2.50;;
69754;SDS011;57023;52.218;5.158;2024-03-02T00:11:26;4.57;;;2.38;;
69754;SDS011;57023;52.218;5.158;2024-03-02T00:13:52;4.75;;;2.25;;
69754;SDS011;57023;52.218;5.158;2024-03-02T00:16:19;3.58;;;2.22;;
69754;SDS011;57023;52.218;5.158;2024-03-02T00:18:45;5.43;;;2.30;;
69754;SDS011;57023;52.218;5.158;2024-03-02T00:21:10;4.22;;;2.42;;
69754;SDS011;57023;52.218;5.158;2024-03-02T00:23:35;3.83;;;2.10;;
69754;SDS011;57023;52.218;5.158;2024-03-02T00:26:01;4.13;;;2.50;;
69754;SDS011;57023;52.218;5.158;2024-03-02T00:28:27;5.65;;;2.47;;
69754;SDS011;57023;52.218;5.158;2024-03-02T00:31:02;4.65;;;2.00;;
69754;SDS011;57023;52.218;5.158;2024-03-02T00:33:37;1.55;;;1.33;;
69754;SDS011;57023;52.218;5.158;2024-03-02T00:36:12;1.92;;;1.42;;
69754;SDS011;57023;52.218;5.158;2024-03-02T00:38:48;1.35;;;1.27;;
69754;SDS011;57023;52.218;5.158;2024-03-02T00:41:27;0.73;;;0.70;;
69754;SDS011;57023;52.218;5.158;2024-03-02T00:46:24;3.22;;;1.10;;
69754;SDS011;57023;52.218;5.158;2024-03-02T00:48:54;3.67;;;1.08;;
69754;SDS011;57023;52.218;5.158;2024-03-02T00:51:21;0.90;;;0.90;;
69754;SDS011;57023;52.218;5.158;2024-03-02T00:53:47;1.60;;;1.10;;
69754;SDS011;57023;52.218;5.158;2024-03-02T00:56:13;1.33;;;1.17;;
69754;SDS011;57023;52.218;5.158;2024-03-02T00:58:39;1.45;;;1.10;;
69754;SDS011;57023;52.218;5.158;2024-03-02T01:01:04;1.75;;;1.25;;
69754;SDS011;57023;52.218;5.158;2024-03-02T01:03:31;1.30;;;1.20;;
69754;SDS011;57023;52.218;5.158;2024-03-02T01:05:56;5.00;;;1.17;;
69754;SDS011;57023;52.218;5.158;2024-03-02T01:08:22;1.30;;;1.13;;
69754;SDS011;57023;52.218;5.158;2024-03-02T01:10:48;2.17;;;1.23;;
69754;SDS011;57023;52.218;5.158;2024-03-02T01:13:14;2.65;;;1.45;;
69754;SDS011;57023;52.218;5.158;2024-03-02T01:15:39;1.35;;;1.05;;
69754;SDS011;57023;52.218;5.158;2024-03-02T01:18:04;2.15;;;1.40;;
69754;SDS011;57023;52.218;5.158;2024-03-02T01:20:30;1.23;;;1.05;;
69754;SDS011;57023;52.218;5.158;2024-03-02T01:22:55;1.58;;;1.48;;
69754;SDS011;57023;52.218;5.158;2024-03-02T01:25:20;2.10;;;1.30;;
69754;SDS011;57023;52.218;5.158;2024-03-02T01:27:46;2.45;;;1.30;;
69754;SDS011;57023;52.218;5.158;2024-03-02T01:30:11;1.88;;;1.33;;
69754;SDS011;57023;52.218;5.158;2024-03-02T01:32:39;1.42;;;1.25;;
69754;SDS011;57023;52.218;5.158;2024-03-02T01:35:05;1.75;;;1.10;;
69754;SDS011;57023;52.218;5.158;2024-03-02T01:37:31;2.15;;;1.35;;
69754;SDS011;57023;52.218;5.158;2024-03-02T01:39:57;2.05;;;1.17;;
69754;SDS011;57023;52.218;5.158;2024-03-02T01:42:23;3.08;;;1.73;;
69754;SDS011;57023;52.218;5.158;2024-03-02T01:44:48;1.30;;;1.20;;
69754;SDS011;57023;52.218;5.158;2024-03-02T01:47:13;2.95;;;1.70;;
69754;SDS011;57023;52.218;5.158;2024-03-02T01:49:42;1.65;;;1.40;;
69754;SDS011;57023;52.218;5.158;2024-03-02T01:52:07;2.72;;;1.55;;
69754;SDS011;57023;52.218;5.158;2024-03-02T01:54:32;2.20;;;1.60;;
69754;SDS011;57023;52.218;5.158;2024-03-02T01:56:58;1.77;;;1.58;;
69754;SDS011;57023;52.218;5.158;2024-03-02T01:59:24;1.60;;;1.50;;
69754;SDS011;57023;52.218;5.158;2024-03-02T02:01:49;2.88;;;1.65;;
69754;SDS011;57023;52.218;5.158;2024-03-02T02:04:14;1.75;;;1.58;;
69754;SDS011;57023;52.218;5.158;2024-03-02T02:06:40;1.98;;;1.33;;
69754;SDS011;57023;52.218;5.158;2024-03-02T02:09:05;3.10;;;1.70;;
69754;SDS011;57023;52.218;5.158;2024-03-02T02:11:33;2.33;;;1.70;;
69754;SDS011;57023;52.218;5.158;2024-03-02T02:13:58;2.55;;;1.70;;
69754;SDS011;57023;52.218;5.158;2024-03-02T02:16:24;3.25;;;1.90;;
69754;SDS011;57023;52.218;5.158;2024-03-02T02:18:49;1.80;;;1.60;;
69754;SDS011;57023;52.218;5.158;2024-03-02T02:21:14;3.40;;;1.80;;
69754;SDS011;57023;52.218;5.158;2024-03-02T02:23:40;2.95;;;1.60;;
69754;SDS011;57023;52.218;5.158;2024-03-02T02:26:07;1.73;;;1.50;;
69754;SDS011;57023;52.218;5.158;2024-03-02T02:28:32;2.80;;;2.00;;
69754;SDS011;57023;52.218;5.158;2024-03-02T02:30:57;1.70;;;1.50;;
69754;SDS011;57023;52.218;5.158;2024-03-02T02:33:25;2.15;;;1.75;;
69754;SDS011;57023;52.218;5.158;2024-03-02T02:35:50;3.08;;;1.67;;
69754;SDS011;57023;52.218;5.158;2024-03-02T02:38:15;3.17;;;1.80;;
69754;SDS011;57023;52.218;5.158;2024-03-02T02:40:41;3.05;;;1.80;;
69754;SDS011;57023;52.218;5.158;2024-03-02T02:43:06;2.63;;;1.60;;
69754;SDS011;57023;52.218;5.158;2024-03-02T02:45:32;2.63;;;1.75;;
69754;SDS011;57023;52.218;5.158;2024-03-02T02:47:57;2.45;;;1.65;;
69754;SDS011;57023;52.218;5.158;2024-03-02T02:50:22;3.03;;;1.80;;
69754;SDS011;57023;52.218;5.158;2024-03-02T02:52:48;2.05;;;1.52;;
69754;SDS011;57023;52.218;5.158;2024-03-02T02:55:13;2.40;;;1.52;;
69754;SDS011;57023;52.218;5.158;2024-03-02T02:57:40;2.45;;;1.52;;
69754;SDS011;57023;52.218;5.158;2024-03-02T03:00:10;2.63;;;1.63;;
69754;SDS011;57023;52.218;5.158;2024-03-02T03:02:40;2.53;;;1.70;;
69754;SDS011;57023;52.218;5.158;2024-03-02T03:07:33;2.40;;;1.63;;
69754;SDS011;57023;52.218;5.158;2024-03-02T03:09:59;3.00;;;1.52;;
69754;SDS011;57023;52.218;5.158;2024-03-02T03:12:24;3.53;;;2.00;;
69754;SDS011;57023;52.218;5.158;2024-03-02T03:14:50;3.33;;;1.90;;
69754;SDS011;57023;52.218;5.158;2024-03-02T03:17:15;3.40;;;1.90;;
69754;SDS011;57023;52.218;5.158;2024-03-02T03:19:40;2.97;;;1.75;;
69754;SDS011;57023;52.218;5.158;2024-03-02T03:22:05;4.07;;;2.05;;
69754;SDS011;57023;52.218;5.158;2024-03-02T03:24:31;3.53;;;1.70;;
69754;SDS011;57023;52.218;5.158;2024-03-02T03:26:57;2.97;;;1.70;;
69754;SDS011;57023;52.218;5.158;2024-03-02T03:29:23;2.50;;;1.70;;
69754;SDS011;57023;52.218;5.158;2024-03-02T03:31:48;3.28;;;2.00;;
69754;SDS011;57023;52.218;5.158;2024-03-02T03:34:13;2.22;;;1.60;;
69754;SDS011;57023;52.218;5.158;2024-03-02T03:36:41;3.60;;;1.80;;
69754;SDS011;57023;52.218;5.158;2024-03-02T03:39:06;2.08;;;1.55;;
69754;SDS011;57023;52.218;5.158;2024-03-02T03:41:31;2.80;;;1.70;;
69754;SDS011;57023;52.218;5.158;2024-03-02T03:43:57;2.72;;;1.80;;
69754;SDS011;57023;52.218;5.158;2024-03-02T03:46:25;3.17;;;1.90;;
69754;SDS011;57023;52.218;5.158;2024-03-02T03:48:50;2.33;;;1.50;;
69754;SDS011;57023;52.218;5.158;2024-03-02T03:51:16;2.45;;;1.55;;
69754;SDS011;57023;52.218;5.158;2024-03-02T03:53:41;3.80;;;1.75;;
69754;SDS011;57023;52.218;5.158;2024-03-02T03:56:06;3.70;;;2.03;;
69754;SDS011;57023;52.218;5.158;2024-03-02T03:58:31;1.65;;;1.30;;
69754;SDS011;57023;52.218;5.158;2024-03-02T04:00:57;2.05;;;1.48;;
69754;SDS011;57023;52.218;5.158;2024-03-02T04:03:22;2.80;;;1.50;;
69754;SDS011;57023;52.218;5.158;2024-03-02T04:05:47;2.30;;;1.50;;
69754;SDS011;57023;52.218;5.158;2024-03-02T04:08:13;3.85;;;1.48;;
69754;SDS011;57023;52.218;5.158;2024-03-02T04:10:38;3.25;;;1.60;;
69754;SDS011;57023;52.218;5.158;2024-03-02T04:13:05;1.95;;;1.60;;
69754;SDS011;57023;52.218;5.158;2024-03-02T04:15:30;2.35;;;1.42;;
69754;SDS011;57023;52.218;5.158;2024-03-02T04:17:55;2.17;;;1.30;;
69754;SDS011;57023;52.218;5.158;2024-03-02T04:20:23;2.83;;;1.63;;
69754;SDS011;57023;52.218;5.158;2024-03-02T04:22:50;2.22;;;1.30;;
69754;SDS011;57023;52.218;5.158;2024-03-02T04:25:15;3.25;;;1.60;;
69754;SDS011;57023;52.218;5.158;2024-03-02T04:27:41;1.70;;;1.33;;
69754;SDS011;57023;52.218;5.158;2024-03-02T04:30:08;3.40;;;1.52;;
69754;SDS011;57023;52.218;5.158;2024-03-02T04:32:34;2.67;;;1.50;;
69754;SDS011;57023;52.218;5.158;2024-03-02T04:35:01;2.63;;;1.52;;
69754;SDS011;57023;52.218;5.158;2024-03-02T04:37:26;2.25;;;1.48;;
69754;SDS011;57023;52.218;5.158;2024-03-02T04:39:51;3.50;;;1.73;;
69754;SDS011;57023;52.218;5.158;2024-03-02T04:42:16;3.25;;;1.70;;
69754;SDS011;57023;52.218;5.158;2024-03-02T04:44:42;2.38;;;1.45;;
69754;SDS011;57023;52.218;5.158;2024-03-02T04:47:07;1.58;;;1.40;;
69754;SDS011;57023;52.218;5.158;2024-03-02T04:49:33;2.95;;;1.52;;
69754;SDS011;57023;52.218;5.158;2024-03-02T04:51:58;2.65;;;1.70;;
69754;SDS011;57023;52.218;5.158;2024-03-02T04:54:23;2.40;;;1.45;;
69754;SDS011;57023;52.218;5.158;2024-03-02T04:56:49;3.65;;;1.80;;
69754;SDS011;57023;52.218;5.158;2024-03-02T04:59:15;3.30;;;1.70;;
69754;SDS011;57023;52.218;5.158;2024-03-02T05:01:41;2.35;;;1.45;;
69754;SDS011;57023;52.218;5.158;2024-03-02T05:04:07;2.70;;;1.60;;
69754;SDS011;57023;52.218;5.158;2024-03-02T05:06:32;3.95;;;1.88;;
69754;SDS011;57023;52.218;5.158;2024-03-02T05:08:58;3.35;;;1.60;;
69754;SDS011;57023;52.218;5.158;2024-03-02T05:11:23;2.92;;;1.70;;
69754;SDS011;57023;52.218;5.158;2024-03-02T05:14:06;2.22;;;1.45;;
69754;SDS011;57023;52.218;5.158;2024-03-02T05:16:35;2.97;;;1.70;;
69754;SDS011;57023;52.218;5.158;2024-03-02T05:19:01;2.45;;;1.52;;
69754;SDS011;57023;52.218;5.158;2024-03-02T05:21:27;4.85;;;1.90;;
69754;SDS011;57023;52.218;5.158;2024-03-02T05:23:52;3.47;;;1.80;;
69754;SDS011;57023;52.218;5.158;2024-03-02T05:26:17;2.88;;;1.73;;
69754;SDS011;57023;52.218;5.158;2024-03-02T05:28:43;3.78;;;2.10;;
69754;SDS011;57023;52.218;5.158;2024-03-02T05:31:11;4.13;;;1.98;;
69754;SDS011;57023;52.218;5.158;2024-03-02T05:33:39;4.13;;;2.00;;
69754;SDS011;57023;52.218;5.158;2024-03-02T05:36:05;3.53;;;2.20;;
69754;SDS011;57023;52.218;5.158;2024-03-02T05:38:31;4.70;;;2.30;;
69754;SDS011;57023;52.218;5.158;2024-03-02T05:40:56;5.57;;;2.50;;
69754;SDS011;57023;52.218;5.158;2024-03-02T05:43:21;4.30;;;2.30;;
69754;SDS011;57023;52.218;5.158;2024-03-02T05:45:46;5.30;;;2.13;;
69754;SDS011;57023;52.218;5.158;2024-03-02T05:48:12;4.55;;;1.85;;
69754;SDS011;57023;52.218;5.158;2024-03-02T05:50:37;4.65;;;1.90;;
69754;SDS011;57023;52.218;5.158;2024-03-02T05:53:03;3.33;;;1.80;;
69754;SDS011;57023;52.218;5.158;2024-03-02T05:55:28;2.85;;;1.65;;
69754;SDS011;57023;52.218;5.158;2024-03-02T05:57:54;2.80;;;1.60;;
69754;SDS011;57023;52.218;5.158;2024-03-02T06:00:47;2.30;;;1.50;;
69754;SDS011;57023;52.218;5.158;2024-03-02T06:03:12;3.38;;;1.75;;
69754;SDS011;57023;52.218;5.158;2024-03-02T06:05:38;2.60;;;1.60;;
69754;SDS011;57023;52.218;5.158;2024-03-02T06:08:03;3.35;;;1.60;;
69754;SDS011;57023;52.218;5.158;2024-03-02T06:10:29;4.03;;;1.73;;
69754;SDS011;57023;52.218;5.158;2024-03-02T06:12:54;2.97;;;1.58;;
69754;SDS011;57023;52.218;5.158;2024-03-02T06:15:19;2.75;;;1.50;;
69754;SDS011;57023;52.218;5.158;2024-03-02T06:17:44;2.60;;;1.73;;
69754;SDS011;57023;52.218;5.158;2024-03-02T06:20:10;4.57;;;1.73;;
69754;SDS011;57023;52.218;5.158;2024-03-02T06:22:35;3.50;;;1.60;;
69754;SDS011;57023;52.218;5.158;2024-03-02T06:25:01;3.40;;;1.58;;
69754;SDS011;57023;52.218;5.158;2024-03-02T06:27:26;3.53;;;1.60;;
69754;SDS011;57023;52.218;5.158;2024-03-02T06:29:51;2.75;;;1.55;;
69754;SDS011;57023;52.218;5.158;2024-03-02T06:32:17;3.10;;;1.60;;
69754;SDS011;57023;52.218;5.158;2024-03-02T06:34:45;2.67;;;1.45;;
69754;SDS011;57023;52.218;5.158;2024-03-02T06:37:10;1.52;;;1.27;;
69754;SDS011;57023;52.218;5.158;2024-03-02T06:39:36;2.65;;;1.73;;
69754;SDS011;57023;52.218;5.158;2024-03-02T06:42:01;2.83;;;1.60;;
69754;SDS011;57023;52.218;5.158;2024-03-02T06:44:26;4.93;;;2.10;;
69754;SDS011;57023;52.218;5.158;2024-03-02T06:46:51;2.95;;;1.40;;
69754;SDS011;57023;52.218;5.158;2024-03-02T06:49:20;3.05;;;1.70;;
69754;SDS011;57023;52.218;5.158;2024-03-02T06:51:45;2.42;;;1.50;;
69754;SDS011;57023;52.218;5.158;2024-03-02T06:54:10;3.17;;;1.80;;
69754;SDS011;57023;52.218;5.158;2024-03-02T06:56:39;3.50;;;1.55;;
69754;SDS011;57023;52.218;5.158;2024-03-02T06:59:04;2.47;;;1.48;;
69754;SDS011;57023;52.218;5.158;2024-03-02T07:01:32;4.38;;;1.40;;
69754;SDS011;57023;52.218;5.158;2024-03-02T07:03:57;3.83;;;1.35;;
69754;SDS011;57023;52.218;5.158;2024-03-02T07:06:23;4.05;;;1.50;;
69754;SDS011;57023;52.218;5.158;2024-03-02T07:08:48;2.97;;;1.55;;
69754;SDS011;57023;52.218;5.158;2024-03-02T07:11:13;2.92;;;1.60;;
69754;SDS011;57023;52.218;5.158;2024-03-02T07:13:39;3.35;;;1.70;;
69754;SDS011;57023;52.218;5.158;2024-03-02T07:16:04;2.05;;;1.35;;
69754;SDS011;57023;52.218;5.158;2024-03-02T07:18:35;4.35;;;1.77;;
69754;SDS011;57023;52.218;5.158;2024-03-02T07:21:07;3.03;;;1.65;;
69754;SDS011;57023;52.218;5.158;2024-03-02T07:23:32;3.30;;;1.60;;
69754;SDS011;57023;52.218;5.158;2024-03-02T07:25:57;2.95;;;1.67;;
69754;SDS011;57023;52.218;5.158;2024-03-02T07:28:25;3.28;;;1.50;;
69754;SDS011;57023;52.218;5.158;2024-03-02T07:31:00;2.70;;;1.40;;
69754;SDS011;57023;52.218;5.158;2024-03-02T07:33:26;3.03;;;1.50;;
69754;SDS011;57023;52.218;5.158;2024-03-02T07:35:51;2.35;;;1.45;;
69754;SDS011;57023;52.218;5.158;2024-03-02T07:38:17;1.30;;;1.20;;
69754;SDS011;57023;52.218;5.158;2024-03-02T07:40:42;3.67;;;1.80;;
69754;SDS011;57023;52.218;5.158;2024-03-02T07:43:07;2.30;;;1.52;;
69754;SDS011;57023;52.218;5.158;2024-03-02T07:45:36;3.30;;;1.67;;
69754;SDS011;57023;52.218;5.158;2024-03-02T07:48:01;3.25;;;1.73;;
69754;SDS011;57023;52.218;5.158;2024-03-02T07:50:28;5.38;;;1.90;;
69754;SDS011;57023;52.218;5.158;2024-03-02T07:52:55;2.53;;;1.70;;
69754;SDS011;57023;52.218;5.158;2024-03-02T07:55:20;4.07;;;1.58;;
69754;SDS011;57023;52.218;5.158;2024-03-02T07:57:45;3.05;;;1.60;;
69754;SDS011;57023;52.218;5.158;2024-03-02T08:00:11;1.77;;;1.58;;
69754;SDS011;57023;52.218;5.158;2024-03-02T08:02:36;4.57;;;1.70;;
69754;SDS011;57023;52.218;5.158;2024-03-02T08:05:02;2.70;;;1.60;;
69754;SDS011;57023;52.218;5.158;2024-03-02T08:07:27;2.50;;;1.70;;
69754;SDS011;57023;52.218;5.158;2024-03-02T08:09:52;3.70;;;1.90;;
69754;SDS011;57023;52.218;5.158;2024-03-02T08:12:18;3.63;;;1.60;;
69754;SDS011;57023;52.218;5.158;2024-03-02T08:14:44;3.97;;;1.80;;
69754;SDS011;57023;52.218;5.158;2024-03-02T08:17:10;3.47;;;1.70;;
69754;SDS011;57023;52.218;5.158;2024-03-02T08:19:36;4.00;;;1.70;;
69754;SDS011;57023;52.218;5.158;2024-03-02T08:22:02;4.22;;;1.60;;
69754;SDS011;57023;52.218;5.158;2024-03-02T08:24:27;3.05;;;1.35;;
69754;SDS011;57023;52.218;5.158;2024-03-02T08:26:52;4.32;;;1.27;;
69754;SDS011;57023;52.218;5.158;2024-03-02T08:29:17;2.45;;;1.40;;
69754;SDS011;57023;52.218;5.158;2024-03-02T08:31:43;3.78;;;1.60;;
69754;SDS011;57023;52.218;5.158;2024-03-02T08:34:08;5.07;;;1.70;;
69754;SDS011;57023;52.218;5.158;2024-03-02T08:36:34;4.78;;;1.40;;
69754;SDS011;57023;52.218;5.158;2024-03-02T08:38:59;4.13;;;1.88;;
69754;SDS011;57023;52.218;5.158;2024-03-02T08:41:24;2.45;;;1.48;;
69754;SDS011;57023;52.218;5.158;2024-03-02T08:43:50;2.67;;;1.45;;
69754;SDS011;57023;52.218;5.158;2024-03-02T08:46:15;2.53;;;1.33;;
69754;SDS011;57023;52.218;5.158;2024-03-02T08:48:40;3.75;;;1.77;;
69754;SDS011;57023;52.218;5.158;2024-03-02T08:51:06;1.38;;;1.17;;
69754;SDS011;57023;52.218;5.158;2024-03-02T08:53:32;5.28;;;1.70;;
69754;SDS011;57023;52.218;5.158;2024-03-02T08:55:58;2.70;;;1.10;;
69754;SDS011;57023;52.218;5.158;2024-03-02T08:58:26;4.03;;;1.63;;
69754;SDS011;57023;52.218;5.158;2024-03-02T09:00:51;3.15;;;1.52;;
69754;SDS011;57023;52.218;5.158;2024-03-02T09:03:17;4.15;;;1.70;;
69754;SDS011;57023;52.218;5.158;2024-03-02T09:05:42;4.22;;;1.58;;
69754;SDS011;57023;52.218;5.158;2024-03-02T09:08:08;6.95;;;1.75;;
69754;SDS011;57023;52.218;5.158;2024-03-02T09:10:33;3.85;;;1.67;;
69754;SDS011;57023;52.218;5.158;2024-03-02T09:12:58;5.20;;;1.70;;
69754;SDS011;57023;52.218;5.158;2024-03-02T09:15:24;2.72;;;1.50;;
69754;SDS011;57023;52.218;5.158;2024-03-02T09:17:50;3.45;;;1.63;;
69754;SDS011;57023;52.218;5.158;2024-03-02T09:20:15;3.47;;;1.40;;
69754;SDS011;57023;52.218;5.158;2024-03-02T09:22:43;3.05;;;1.50;;
69754;SDS011;57023;52.218;5.158;2024-03-02T09:25:08;4.35;;;1.77;;
69754;SDS011;57023;52.218;5.158;2024-03-02T09:27:37;3.80;;;1.48;;
69754;SDS011;57023;52.218;5.158;2024-03-02T09:30:03;2.97;;;1.40;;
69754;SDS011;57023;52.218;5.158;2024-03-02T09:32:30;4.63;;;1.40;;
69754;SDS011;57023;52.218;5.158;2024-03-02T09:34:55;5.55;;;1.80;;
69754;SDS011;57023;52.218;5.158;2024-03-02T09:37:21;5.00;;;1.65;;
69754;SDS011;57023;52.218;5.158;2024-03-02T09:39:46;4.50;;;1.70;;
69754;SDS011;57023;52.218;5.158;2024-03-02T09:42:12;3.80;;;1.75;;
69754;SDS011;57023;52.218;5.158;2024-03-02T09:44:38;3.63;;;1.55;;
69754;SDS011;57023;52.218;5.158;2024-03-02T09:47:03;7.40;;;1.67;;
69754;SDS011;57023;52.218;5.158;2024-03-02T09:49:29;3.97;;;1.60;;
69754;SDS011;57023;52.218;5.158;2024-03-02T09:51:54;3.42;;;1.40;;
69754;SDS011;57023;52.218;5.158;2024-03-02T09:54:20;4.45;;;1.80;;
69754;SDS011;57023;52.218;5.158;2024-03-02T09:56:49;5.07;;;1.77;;
69754;SDS011;57023;52.218;5.158;2024-03-02T09:59:14;7.10;;;1.83;;
69754;SDS011;57023;52.218;5.158;2024-03-02T10:01:55;4.50;;;1.90;;
69754;SDS011;57023;52.218;5.158;2024-03-02T10:04:26;5.05;;;1.48;;
69754;SDS011;57023;52.218;5.158;2024-03-02T10:09:41;5.30;;;1.50;;
69754;SDS011;57023;52.218;5.158;2024-03-02T10:12:10;3.13;;;1.13;;
69754;SDS011;57023;52.218;5.158;2024-03-02T10:14:39;4.65;;;1.75;;
69754;SDS011;57023;52.218;5.158;2024-03-02T10:17:07;5.90;;;1.67;;
69754;SDS011;57023;52.218;5.158;2024-03-02T10:19:33;6.97;;;1.70;;
69754;SDS011;57023;52.218;5.158;2024-03-02T10:22:02;5.57;;;1.58;;
69754;SDS011;57023;52.218;5.158;2024-03-02T10:24:34;4.47;;;1.60;;
69754;SDS011;57023;52.218;5.158;2024-03-02T10:29:48;5.85;;;1.88;;
69754;SDS011;57023;52.218;5.158;2024-03-02T10:32:13;3.35;;;1.60;;
69754;SDS011;57023;52.218;5.158;2024-03-02T10:34:43;4.35;;;1.77;;
69754;SDS011;57023;52.218;5.158;2024-03-02T10:37:12;4.07;;;1.40;;
69754;SDS011;57023;52.218;5.158;2024-03-02T10:39:39;6.20;;;1.90;;
69754;SDS011;57023;52.218;5.158;2024-03-02T10:42:05;5.35;;;1.70;;
69754;SDS011;57023;52.218;5.158;2024-03-02T10:44:31;8.65;;;2.08;;
69754;SDS011;57023;52.218;5.158;2024-03-02T10:47:00;6.75;;;1.88;;
69754;SDS011;57023;52.218;5.158;2024-03-02T10:49:27;4.95;;;1.80;;
69754;SDS011;57023;52.218;5.158;2024-03-02T10:51:57;5.45;;;1.67;;
69754;SDS011;57023;52.218;5.158;2024-03-02T10:54:23;4.28;;;1.60;;
69754;SDS011;57023;52.218;5.158;2024-03-02T10:56:53;4.63;;;1.40;;
69754;SDS011;57023;52.218;5.158;2024-03-02T10:59:35;5.00;;;1.60;;
69754;SDS011;57023;52.218;5.158;2024-03-02T11:02:01;2.75;;;1.40;;
69754;SDS011;57023;52.218;5.158;2024-03-02T11:04:28;3.33;;;1.40;;
69754;SDS011;57023;52.218;5.158;2024-03-02T11:06:56;4.68;;;1.60;;
69754;SDS011;57023;52.218;5.158;2024-03-02T11:09:25;4.80;;;1.73;;
69754;SDS011;57023;52.218;5.158;2024-03-02T11:11:54;7.97;;;1.80;;
69754;SDS011;57023;52.218;5.158;2024-03-02T11:14:43;4.75;;;1.50;;
69754;SDS011;57023;52.218;5.158;2024-03-02T11:17:08;4.43;;;1.48;;
69754;SDS011;57023;52.218;5.158;2024-03-02T11:19:34;5.32;;;2.10;;
69754;SDS011;57023;52.218;5.158;2024-03-02T11:22:05;3.75;;;1.63;;
69754;SDS011;57023;52.218;5.158;2024-03-02T11:24:31;3.72;;;1.88;;
69754;SDS011;57023;52.218;5.158;2024-03-02T11:27:00;4.45;;;1.50;;
69754;SDS011;57023;52.218;5.158;2024-03-02T11:32:06;5.17;;;1.70;;
69754;SDS011;57023;52.218;5.158;2024-03-02T11:34:42;5.22;;;1.60;;
69754;SDS011;57023;52.218;5.158;2024-03-02T11:37:20;5.05;;;1.80;;
69754;SDS011;57023;52.218;5.158;2024-03-02T11:39:49;5.07;;;1.63;;
69754;SDS011;57023;52.218;5.158;2024-03-02T11:42:15;3.28;;;1.75;;
69754;SDS011;57023;52.218;5.158;2024-03-02T11:44:47;3.63;;;1.67;;
69754;SDS011;57023;52.218;5.158;2024-03-02T11:47:16;3.85;;;1.67;;
69754;SDS011;57023;52.218;5.158;2024-03-02T11:49:44;5.40;;;1.73;;
69754;SDS011;57023;52.218;5.158;2024-03-02T11:52:16;5.00;;;1.73;;
69754;SDS011;57023;52.218;5.158;2024-03-02T11:54:43;5.55;;;1.63;;
69754;SDS011;57023;52.218;5.158;2024-03-02T11:57:14;4.25;;;1.50;;
69754;SDS011;57023;52.218;5.158;2024-03-02T12:02:06;5.28;;;1.50;;
69754;SDS011;57023;52.218;5.158;2024-03-02T12:04:31;2.92;;;1.50;;
69754;SDS011;57023;52.218;5.158;2024-03-02T12:06:57;3.97;;;1.80;;
69754;SDS011;57023;52.218;5.158;2024-03-02T12:09:27;3.45;;;1.52;;
69754;SDS011;57023;52.218;5.158;2024-03-02T12:12:03;4.53;;;1.50;;
69754;SDS011;57023;52.218;5.158;2024-03-02T12:14:33;3.60;;;1.55;;
69754;SDS011;57023;52.218;5.158;2024-03-02T12:16:59;3.08;;;1.20;;
69754;SDS011;57023;52.218;5.158;2024-03-02T12:19:25;3.42;;;1.35;;
69754;SDS011;57023;52.218;5.158;2024-03-02T12:21:51;3.75;;;1.70;;
69754;SDS011;57023;52.218;5.158;2024-03-02T12:24:17;3.40;;;1.67;;
69754;SDS011;57023;52.218;5.158;2024-03-02T12:26:43;4.68;;;1.98;;
69754;SDS011;57023;52.218;5.158;2024-03-02T12:29:08;4.75;;;1.88;;
69754;SDS011;57023;52.218;5.158;2024-03-02T12:31:34;3.80;;;1.65;;
69754;SDS011;57023;52.218;5.158;2024-03-02T12:34:00;5.90;;;1.80;;
69754;SDS011;57023;52.218;5.158;2024-03-02T12:36:26;6.47;;;1.85;;
69754;SDS011;57023;52.218;5.158;2024-03-02T12:38:54;4.57;;;1.70;;
69754;SDS011;57023;52.218;5.158;2024-03-02T12:41:20;3.92;;;1.42;;
69754;SDS011;57023;52.218;5.158;2024-03-02T12:43:45;3.47;;;1.40;;
69754;SDS011;57023;52.218;5.158;2024-03-02T12:46:11;3.70;;;1.33;;
69754;SDS011;57023;52.218;5.158;2024-03-02T12:48:39;5.65;;;1.90;;
69754;SDS011;57023;52.218;5.158;2024-03-02T12:51:07;5.00;;;1.60;;
69754;SDS011;57023;52.218;5.158;2024-03-02T12:53:33;6.53;;;2.50;;
69754;SDS011;57023;52.218;5.158;2024-03-02T12:55:58;6.00;;;2.00;;
69754;SDS011;57023;52.218;5.158;2024-03-02T12:58:23;5.00;;;1.80;;
69754;SDS011;57023;52.218;5.158;2024-03-02T13:00:49;6.15;;;1.80;;
69754;SDS011;57023;52.218;5.158;2024-03-02T13:03:14;4.18;;;1.55;;
69754;SDS011;57023;52.218;5.158;2024-03-02T13:05:43;4.35;;;1.70;;
69754;SDS011;57023;52.218;5.158;2024-03-02T13:08:13;5.55;;;2.15;;
69754;SDS011;57023;52.218;5.158;2024-03-02T13:10:38;4.73;;;1.97;;
69754;SDS011;57023;52.218;5.158;2024-03-02T13:13:07;5.50;;;2.37;;
69754;SDS011;57023;52.218;5.158;2024-03-02T13:15:35;3.58;;;1.60;;
69754;SDS011;57023;52.218;5.158;2024-03-02T13:18:00;4.55;;;1.60;;
69754;SDS011;57023;52.218;5.158;2024-03-02T13:20:32;4.63;;;1.60;;
69754;SDS011;57023;52.218;5.158;2024-03-02T13:22:58;3.55;;;1.40;;
69754;SDS011;57023;52.218;5.158;2024-03-02T13:25:23;3.23;;;1.43;;
69754;SDS011;57023;52.218;5.158;2024-03-02T13:27:48;6.90;;;1.87;;
69754;SDS011;57023;52.218;5.158;2024-03-02T13:30:13;4.70;;;2.03;;
69754;SDS011;57023;52.218;5.158;2024-03-02T13:32:39;4.97;;;2.00;;
69754;SDS011;57023;52.218;5.158;2024-03-02T13:35:04;4.20;;;1.40;;
69754;SDS011;57023;52.218;5.158;2024-03-02T13:37:30;5.13;;;1.90;;
69754;SDS011;57023;52.218;5.158;2024-03-02T13:39:55;5.43;;;1.90;;
69754;SDS011;57023;52.218;5.158;2024-03-02T13:42:20;6.05;;;2.30;;
69754;SDS011;57023;52.218;5.158;2024-03-02T13:44:46;3.20;;;1.70;;
69754;SDS011;57023;52.218;5.158;2024-03-02T13:47:13;5.40;;;2.25;;
69754;SDS011;57023;52.218;5.158;2024-03-02T13:49:38;4.47;;;1.75;;
69754;SDS011;57023;52.218;5.158;2024-03-02T13:52:08;5.63;;;2.10;;
69754;SDS011;57023;52.218;5.158;2024-03-02T13:54:41;4.38;;;1.70;;
69754;SDS011;57023;52.218;5.158;2024-03-02T13:57:07;5.85;;;2.13;;
69754;SDS011;57023;52.218;5.158;2024-03-02T13:59:33;4.83;;;1.90;;
69754;SDS011;57023;52.218;5.158;2024-03-02T14:02:00;6.20;;;2.10;;
69754;SDS011;57023;52.218;5.158;2024-03-02T14:04:26;4.50;;;1.98;;
69754;SDS011;57023;52.218;5.158;2024-03-02T14:06:51;5.78;;;1.70;;
69754;SDS011;57023;52.218;5.158;2024-03-02T14:09:18;4.55;;;2.00;;
69754;SDS011;57023;52.218;5.158;2024-03-02T14:14:10;3.73;;;1.90;;
69754;SDS011;57023;52.218;5.158;2024-03-02T14:16:36;6.05;;;1.80;;
69754;SDS011;57023;52.218;5.158;2024-03-02T14:19:01;4.82;;;1.70;;
69754;SDS011;57023;52.218;5.158;2024-03-02T14:21:30;6.55;;;2.03;;
69754;SDS011;57023;52.218;5.158;2024-03-02T14:23:55;3.90;;;1.70;;
69754;SDS011;57023;52.218;5.158;2024-03-02T14:26:20;5.25;;;2.30;;
69754;SDS011;57023;52.218;5.158;2024-03-02T14:28:46;4.82;;;2.40;;
69754;SDS011;57023;52.218;5.158;2024-03-02T14:31:11;6.05;;;2.38;;
69754;SDS011;57023;52.218;5.158;2024-03-02T14:33:36;6.80;;;2.58;;
69754;SDS011;57023;52.218;5.158;2024-03-02T14:36:02;9.40;;;4.35;;
69754;SDS011;57023;52.218;5.158;2024-03-02T14:40:54;5.33;;;2.20;;
69754;SDS011;57023;52.218;5.158;2024-03-02T14:43:19;5.15;;;2.55;;
69754;SDS011;57023;52.218;5.158;2024-03-02T14:45:45;6.85;;;2.90;;
69754;SDS011;57023;52.218;5.158;2024-03-02T14:48:10;5.65;;;2.38;;
69754;SDS011;57023;52.218;5.158;2024-03-02T14:50:36;5.93;;;2.10;;
69754;SDS011;57023;52.218;5.158;2024-03-02T14:53:01;7.40;;;2.40;;
69754;SDS011;57023;52.218;5.158;2024-03-02T14:55:27;5.18;;;2.20;;
69754;SDS011;57023;52.218;5.158;2024-03-02T14:57:52;7.38;;;2.50;;
69754;SDS011;57023;52.218;5.158;2024-03-02T15:00:18;5.75;;;2.17;;
69754;SDS011;57023;52.218;5.158;2024-03-02T15:02:43;6.32;;;2.30;;
69754;SDS011;57023;52.218;5.158;2024-03-02T15:05:09;5.25;;;2.20;;